sensor_id;sensor_type;location;lat;lon;timestamp;P1;durP1;ratioP1;P2;durP2;ratioP2
51764;SDS011;37835;53.256;6.456;2024-01-15T00:01:46;14.20;;;1.58;;
51764;SDS011;37835;53.256;6.456;2024-01-15T00:04:11;10.23;;;1.10;;
51764;SDS011;37835;53.256;6.456;2024-01-15T00:06:37;2.65;;;0.55;;
51764;SDS011;37835;53.256;6.456;2024-01-15T00:09:03;7.00;;;0.67;;
51764;SDS011;37835;53.256;6.456;2024-01-15T00:11:28;3.57;;;0.30;;
51764;SDS011;37835;53.256;6.456;2024-01-15T00:13:54;3.00;;;0.10;;
51764;SDS011;37835;53.256;6.456;2024-01-15T00:16:20;1.58;;;0.35;;
51764;SDS011;37835;53.256;6.456;2024-01-15T00:18:45;4.88;;;0.63;;
51764;SDS011;37835;53.256;6.456;2024-01-15T00:21:11;9.52;;;0.73;;
51764;SDS011;37835;53.256;6.456;2024-01-15T00:23:36;12.05;;;1.40;;
51764;SDS011;37835;53.256;6.456;2024-01-15T00:26:05;10.03;;;1.00;;
51764;SDS011;37835;53.256;6.456;2024-01-15T00:28:30;8.80;;;0.93;;
51764;SDS011;37835;53.256;6.456;2024-01-15T00:30:56;13.30;;;1.55;;
51764;SDS011;37835;53.256;6.456;2024-01-15T00:33:21;9.30;;;1.60;;
51764;SDS011;37835;53.256;6.456;2024-01-15T00:35:47;10.20;;;1.27;;
51764;SDS011;37835;53.256;6.456;2024-01-15T00:38:13;11.52;;;1.10;;
51764;SDS011;37835;53.256;6.456;2024-01-15T00:40:38;8.17;;;1.17;;
51764;SDS011;37835;53.256;6.456;2024-01-15T00:43:04;13.25;;;1.70;;
51764;SDS011;37835;53.256;6.456;2024-01-15T00:45:32;11.68;;;1.83;;
51764;SDS011;37835;53.256;6.456;2024-01-15T00:47:57;12.03;;;1.63;;
51764;SDS011;37835;53.256;6.456;2024-01-15T00:50:24;12.80;;;1.58;;
51764;SDS011;37835;53.256;6.456;2024-01-15T00:52:50;15.40;;;2.05;;
51764;SDS011;37835;53.256;6.456;2024-01-15T00:55:15;14.75;;;2.08;;
51764;SDS011;37835;53.256;6.456;2024-01-15T00:57:41;19.67;;;2.50;;
51764;SDS011;37835;53.256;6.456;2024-01-15T01:00:07;13.60;;;1.80;;
51764;SDS011;37835;53.256;6.456;2024-01-15T01:02:34;31.77;;;3.22;;
51764;SDS011;37835;53.256;6.456;2024-01-15T01:04:59;25.02;;;2.85;;
51764;SDS011;37835;53.256;6.456;2024-01-15T01:07:25;28.02;;;3.13;;
51764;SDS011;37835;53.256;6.456;2024-01-15T01:09:51;18.98;;;3.03;;
51764;SDS011;37835;53.256;6.456;2024-01-15T01:12:16;23.93;;;3.33;;
51764;SDS011;37835;53.256;6.456;2024-01-15T01:14:42;21.63;;;2.63;;
51764;SDS011;37835;53.256;6.456;2024-01-15T01:17:08;15.32;;;2.35;;
51764;SDS011;37835;53.256;6.456;2024-01-15T01:19:33;23.67;;;3.08;;
51764;SDS011;37835;53.256;6.456;2024-01-15T01:21:59;26.85;;;2.92;;
51764;SDS011;37835;53.256;6.456;2024-01-15T01:24:24;21.52;;;2.20;;
51764;SDS011;37835;53.256;6.456;2024-01-15T01:26:50;14.05;;;2.40;;
51764;SDS011;37835;53.256;6.456;2024-01-15T01:29:15;21.17;;;3.08;;
51764;SDS011;37835;53.256;6.456;2024-01-15T01:31:45;13.38;;;2.00;;
51764;SDS011;37835;53.256;6.456;2024-01-15T01:34:15;17.27;;;2.67;;
51764;SDS011;37835;53.256;6.456;2024-01-15T01:36:41;26.92;;;3.08;;
51764;SDS011;37835;53.256;6.456;2024-01-15T01:39:08;17.45;;;2.35;;
51764;SDS011;37835;53.256;6.456;2024-01-15T01:41:34;24.80;;;2.70;;
51764;SDS011;37835;53.256;6.456;2024-01-15T01:44:00;15.70;;;3.00;;
51764;SDS011;37835;53.256;6.456;2024-01-15T01:46:25;15.65;;;1.67;;
51764;SDS011;37835;53.256;6.456;2024-01-15T01:48:53;15.88;;;2.58;;
51764;SDS011;37835;53.256;6.456;2024-01-15T01:51:20;14.30;;;2.28;;
51764;SDS011;37835;53.256;6.456;2024-01-15T01:53:47;18.80;;;2.47;;
51764;SDS011;37835;53.256;6.456;2024-01-15T01:56:15;13.27;;;1.70;;
51764;SDS011;37835;53.256;6.456;2024-01-15T01:58:42;13.95;;;1.75;;
51764;SDS011;37835;53.256;6.456;2024-01-15T02:01:08;16.35;;;2.30;;
51764;SDS011;37835;53.256;6.456;2024-01-15T02:03:34;22.88;;;2.08;;
51764;SDS011;37835;53.256;6.456;2024-01-15T02:06:00;21.75;;;2.80;;
51764;SDS011;37835;53.256;6.456;2024-01-15T02:08:26;15.75;;;2.10;;
51764;SDS011;37835;53.256;6.456;2024-01-15T02:10:52;24.05;;;2.35;;
51764;SDS011;37835;53.256;6.456;2024-01-15T02:13:17;22.52;;;3.05;;
51764;SDS011;37835;53.256;6.456;2024-01-15T02:15:44;21.38;;;3.20;;
51764;SDS011;37835;53.256;6.456;2024-01-15T02:18:09;23.30;;;2.63;;
51764;SDS011;37835;53.256;6.456;2024-01-15T02:20:35;14.20;;;2.60;;
51764;SDS011;37835;53.256;6.456;2024-01-15T02:23:11;15.95;;;2.53;;
51764;SDS011;37835;53.256;6.456;2024-01-15T02:25:39;28.73;;;3.65;;
51764;SDS011;37835;53.256;6.456;2024-01-15T02:28:07;22.88;;;2.65;;
51764;SDS011;37835;53.256;6.456;2024-01-15T02:30:38;19.73;;;2.22;;
51764;SDS011;37835;53.256;6.456;2024-01-15T02:33:05;20.30;;;2.78;;
51764;SDS011;37835;53.256;6.456;2024-01-15T02:35:31;7.80;;;1.20;;
51764;SDS011;37835;53.256;6.456;2024-01-15T02:37:57;9.88;;;1.50;;
51764;SDS011;37835;53.256;6.456;2024-01-15T02:40:23;9.88;;;1.05;;
51764;SDS011;37835;53.256;6.456;2024-01-15T02:42:49;11.48;;;1.40;;
51764;SDS011;37835;53.256;6.456;2024-01-15T02:45:15;12.15;;;1.33;;
51764;SDS011;37835;53.256;6.456;2024-01-15T02:47:40;7.43;;;0.80;;
51764;SDS011;37835;53.256;6.456;2024-01-15T02:50:06;6.53;;;0.80;;
51764;SDS011;37835;53.256;6.456;2024-01-15T02:52:32;12.65;;;1.10;;
51764;SDS011;37835;53.256;6.456;2024-01-15T02:54:57;9.68;;;1.70;;
51764;SDS011;37835;53.256;6.456;2024-01-15T02:57:23;12.52;;;1.80;;
51764;SDS011;37835;53.256;6.456;2024-01-15T02:59:49;9.60;;;1.25;;
51764;SDS011;37835;53.256;6.456;2024-01-15T03:02:14;15.10;;;1.92;;
51764;SDS011;37835;53.256;6.456;2024-01-15T03:04:43;23.40;;;2.08;;
51764;SDS011;37835;53.256;6.456;2024-01-15T03:07:09;13.98;;;1.98;;
51764;SDS011;37835;53.256;6.456;2024-01-15T03:09:35;17.90;;;2.53;;
51764;SDS011;37835;53.256;6.456;2024-01-15T03:12:00;28.30;;;3.17;;
51764;SDS011;37835;53.256;6.456;2024-01-15T03:14:26;17.90;;;1.90;;
51764;SDS011;37835;53.256;6.456;2024-01-15T03:16:52;18.52;;;2.85;;
51764;SDS011;37835;53.256;6.456;2024-01-15T03:19:18;28.80;;;3.05;;
51764;SDS011;37835;53.256;6.456;2024-01-15T03:21:44;19.20;;;2.60;;
51764;SDS011;37835;53.256;6.456;2024-01-15T03:24:10;24.42;;;2.83;;
51764;SDS011;37835;53.256;6.456;2024-01-15T03:26:35;23.08;;;2.83;;
51764;SDS011;37835;53.256;6.456;2024-01-15T03:29:01;23.52;;;3.80;;
51764;SDS011;37835;53.256;6.456;2024-01-15T03:31:27;27.35;;;4.07;;
51764;SDS011;37835;53.256;6.456;2024-01-15T03:33:52;28.10;;;3.45;;
51764;SDS011;37835;53.256;6.456;2024-01-15T03:36:18;25.92;;;3.03;;
51764;SDS011;37835;53.256;6.456;2024-01-15T03:38:44;20.75;;;2.88;;
51764;SDS011;37835;53.256;6.456;2024-01-15T03:41:09;17.23;;;2.90;;
51764;SDS011;37835;53.256;6.456;2024-01-15T03:43:35;20.35;;;1.95;;
51764;SDS011;37835;53.256;6.456;2024-01-15T03:46:01;10.95;;;1.73;;
51764;SDS011;37835;53.256;6.456;2024-01-15T03:48:27;18.42;;;2.22;;
51764;SDS011;37835;53.256;6.456;2024-01-15T03:50:53;13.68;;;2.22;;
51764;SDS011;37835;53.256;6.456;2024-01-15T03:53:18;16.48;;;2.38;;
51764;SDS011;37835;53.256;6.456;2024-01-15T03:55:44;20.60;;;2.60;;
51764;SDS011;37835;53.256;6.456;2024-01-15T03:58:10;10.38;;;1.50;;
51764;SDS011;37835;53.256;6.456;2024-01-15T04:00:36;6.35;;;1.50;;
51764;SDS011;37835;53.256;6.456;2024-01-15T04:03:01;8.32;;;0.80;;
51764;SDS011;37835;53.256;6.456;2024-01-15T04:05:27;15.32;;;1.50;;
51764;SDS011;37835;53.256;6.456;2024-01-15T04:07:52;6.82;;;1.40;;
51764;SDS011;37835;53.256;6.456;2024-01-15T04:10:18;9.63;;;1.23;;
51764;SDS011;37835;53.256;6.456;2024-01-15T04:12:44;14.35;;;2.17;;
51764;SDS011;37835;53.256;6.456;2024-01-15T04:15:11;13.05;;;2.08;;
51764;SDS011;37835;53.256;6.456;2024-01-15T04:17:37;17.42;;;2.15;;
51764;SDS011;37835;53.256;6.456;2024-01-15T04:20:03;13.35;;;1.55;;
51764;SDS011;37835;53.256;6.456;2024-01-15T04:22:30;17.17;;;2.13;;
51764;SDS011;37835;53.256;6.456;2024-01-15T04:24:55;11.35;;;1.48;;
51764;SDS011;37835;53.256;6.456;2024-01-15T04:27:21;12.43;;;1.70;;
51764;SDS011;37835;53.256;6.456;2024-01-15T04:29:46;12.82;;;1.70;;
51764;SDS011;37835;53.256;6.456;2024-01-15T04:32:12;9.38;;;1.63;;
51764;SDS011;37835;53.256;6.456;2024-01-15T04:34:38;8.40;;;0.82;;
51764;SDS011;37835;53.256;6.456;2024-01-15T04:37:03;7.60;;;1.00;;
51764;SDS011;37835;53.256;6.456;2024-01-15T04:39:29;7.80;;;1.17;;
51764;SDS011;37835;53.256;6.456;2024-01-15T04:41:55;7.55;;;0.63;;
51764;SDS011;37835;53.256;6.456;2024-01-15T04:44:20;3.38;;;0.60;;
51764;SDS011;37835;53.256;6.456;2024-01-15T04:46:46;8.75;;;1.00;;
51764;SDS011;37835;53.256;6.456;2024-01-15T04:49:12;6.75;;;0.45;;
51764;SDS011;37835;53.256;6.456;2024-01-15T04:51:37;3.83;;;0.43;;
51764;SDS011;37835;53.256;6.456;2024-01-15T04:54:04;5.93;;;0.98;;
51764;SDS011;37835;53.256;6.456;2024-01-15T04:56:29;5.50;;;0.95;;
51764;SDS011;37835;53.256;6.456;2024-01-15T04:58:55;6.93;;;0.95;;
51764;SDS011;37835;53.256;6.456;2024-01-15T05:01:21;8.80;;;0.97;;
51764;SDS011;37835;53.256;6.456;2024-01-15T05:03:46;13.18;;;1.40;;
51764;SDS011;37835;53.256;6.456;2024-01-15T05:06:12;10.75;;;2.13;;
51764;SDS011;37835;53.256;6.456;2024-01-15T05:08:37;18.20;;;1.73;;
51764;SDS011;37835;53.256;6.456;2024-01-15T05:11:03;7.83;;;1.40;;
51764;SDS011;37835;53.256;6.456;2024-01-15T05:13:29;16.98;;;2.17;;
51764;SDS011;37835;53.256;6.456;2024-01-15T05:15:54;16.40;;;2.30;;
51764;SDS011;37835;53.256;6.456;2024-01-15T05:18:20;13.27;;;1.65;;
51764;SDS011;37835;53.256;6.456;2024-01-15T05:20:46;14.80;;;1.63;;
51764;SDS011;37835;53.256;6.456;2024-01-15T05:23:11;13.18;;;2.10;;
51764;SDS011;37835;53.256;6.456;2024-01-15T05:25:37;14.27;;;1.85;;
51764;SDS011;37835;53.256;6.456;2024-01-15T05:28:03;20.38;;;2.05;;
51764;SDS011;37835;53.256;6.456;2024-01-15T05:30:30;16.92;;;2.53;;
51764;SDS011;37835;53.256;6.456;2024-01-15T05:32:56;15.48;;;1.95;;
51764;SDS011;37835;53.256;6.456;2024-01-15T05:35:22;16.40;;;2.13;;
51764;SDS011;37835;53.256;6.456;2024-01-15T05:37:48;16.13;;;2.60;;
51764;SDS011;37835;53.256;6.456;2024-01-15T05:40:14;14.05;;;1.90;;
51764;SDS011;37835;53.256;6.456;2024-01-15T05:42:40;13.57;;;2.10;;
51764;SDS011;37835;53.256;6.456;2024-01-15T05:45:06;16.90;;;2.20;;
51764;SDS011;37835;53.256;6.456;2024-01-15T05:47:32;18.45;;;2.22;;
51764;SDS011;37835;53.256;6.456;2024-01-15T05:49:58;14.95;;;2.03;;
51764;SDS011;37835;53.256;6.456;2024-01-15T05:52:25;19.00;;;2.28;;
51764;SDS011;37835;53.256;6.456;2024-01-15T05:54:51;12.90;;;1.77;;
51764;SDS011;37835;53.256;6.456;2024-01-15T05:57:16;17.93;;;3.00;;
51764;SDS011;37835;53.256;6.456;2024-01-15T05:59:44;11.52;;;1.90;;
51764;SDS011;37835;53.256;6.456;2024-01-15T06:02:10;15.33;;;2.10;;
51764;SDS011;37835;53.256;6.456;2024-01-15T06:04:36;22.97;;;2.23;;
51764;SDS011;37835;53.256;6.456;2024-01-15T06:07:02;23.25;;;3.13;;
51764;SDS011;37835;53.256;6.456;2024-01-15T06:09:27;20.37;;;2.50;;
51764;SDS011;37835;53.256;6.456;2024-01-15T06:11:53;18.27;;;2.80;;
51764;SDS011;37835;53.256;6.456;2024-01-15T06:14:20;18.67;;;2.30;;
51764;SDS011;37835;53.256;6.456;2024-01-15T06:16:45;19.50;;;2.45;;
51764;SDS011;37835;53.256;6.456;2024-01-15T06:19:11;27.88;;;2.70;;
51764;SDS011;37835;53.256;6.456;2024-01-15T06:21:37;22.43;;;2.23;;
51764;SDS011;37835;53.256;6.456;2024-01-15T06:24:02;28.00;;;3.17;;
51764;SDS011;37835;53.256;6.456;2024-01-15T06:26:28;20.00;;;2.47;;
51764;SDS011;37835;53.256;6.456;2024-01-15T06:28:54;17.60;;;2.17;;
51764;SDS011;37835;53.256;6.456;2024-01-15T06:31:20;17.83;;;2.57;;
51764;SDS011;37835;53.256;6.456;2024-01-15T06:33:46;24.13;;;3.07;;
51764;SDS011;37835;53.256;6.456;2024-01-15T06:36:13;25.40;;;3.27;;
51764;SDS011;37835;53.256;6.456;2024-01-15T06:38:39;18.50;;;2.47;;
51764;SDS011;37835;53.256;6.456;2024-01-15T06:41:05;21.20;;;2.50;;
51764;SDS011;37835;53.256;6.456;2024-01-15T06:43:31;18.05;;;2.50;;
51764;SDS011;37835;53.256;6.456;2024-01-15T06:45:56;13.40;;;2.42;;
51764;SDS011;37835;53.256;6.456;2024-01-15T06:48:22;24.00;;;2.63;;
51764;SDS011;37835;53.256;6.456;2024-01-15T06:50:48;22.70;;;2.45;;
51764;SDS011;37835;53.256;6.456;2024-01-15T06:53:13;19.83;;;2.38;;
51764;SDS011;37835;53.256;6.456;2024-01-15T06:55:39;18.20;;;2.03;;
51764;SDS011;37835;53.256;6.456;2024-01-15T06:58:05;10.88;;;1.50;;
51764;SDS011;37835;53.256;6.456;2024-01-15T07:00:30;8.73;;;1.30;;
51764;SDS011;37835;53.256;6.456;2024-01-15T07:02:56;10.52;;;1.00;;
51764;SDS011;37835;53.256;6.456;2024-01-15T07:05:22;11.07;;;1.20;;
51764;SDS011;37835;53.256;6.456;2024-01-15T07:07:48;8.70;;;1.10;;
51764;SDS011;37835;53.256;6.456;2024-01-15T07:10:14;11.40;;;1.63;;
51764;SDS011;37835;53.256;6.456;2024-01-15T07:12:43;13.57;;;1.45;;
51764;SDS011;37835;53.256;6.456;2024-01-15T07:15:09;12.10;;;1.42;;
51764;SDS011;37835;53.256;6.456;2024-01-15T07:17:34;11.47;;;1.60;;
51764;SDS011;37835;53.256;6.456;2024-01-15T07:20:02;17.23;;;1.43;;
51764;SDS011;37835;53.256;6.456;2024-01-15T07:22:28;13.27;;;1.67;;
51764;SDS011;37835;53.256;6.456;2024-01-15T07:24:54;15.50;;;1.90;;
51764;SDS011;37835;53.256;6.456;2024-01-15T07:27:20;10.83;;;1.70;;
51764;SDS011;37835;53.256;6.456;2024-01-15T07:29:46;13.90;;;1.77;;
51764;SDS011;37835;53.256;6.456;2024-01-15T07:32:13;13.97;;;1.27;;
51764;SDS011;37835;53.256;6.456;2024-01-15T07:34:39;7.63;;;0.95;;
51764;SDS011;37835;53.256;6.456;2024-01-15T07:37:05;18.20;;;2.00;;
51764;SDS011;37835;53.256;6.456;2024-01-15T07:39:30;12.50;;;1.23;;
51764;SDS011;37835;53.256;6.456;2024-01-15T07:41:56;8.87;;;1.27;;
51764;SDS011;37835;53.256;6.456;2024-01-15T07:44:22;7.90;;;1.10;;
51764;SDS011;37835;53.256;6.456;2024-01-15T07:46:47;5.07;;;1.45;;
51764;SDS011;37835;53.256;6.456;2024-01-15T07:49:13;13.57;;;3.43;;
51764;SDS011;37835;53.256;6.456;2024-01-15T07:51:39;7.80;;;0.73;;
51764;SDS011;37835;53.256;6.456;2024-01-15T07:54:08;8.93;;;1.10;;
51764;SDS011;37835;53.256;6.456;2024-01-15T07:56:52;16.67;;;1.73;;
51764;SDS011;37835;53.256;6.456;2024-01-15T07:59:18;14.67;;;1.77;;
51764;SDS011;37835;53.256;6.456;2024-01-15T08:01:44;19.10;;;1.90;;
51764;SDS011;37835;53.256;6.456;2024-01-15T08:04:10;7.87;;;1.57;;
51764;SDS011;37835;53.256;6.456;2024-01-15T08:06:37;15.20;;;1.73;;
51764;SDS011;37835;53.256;6.456;2024-01-15T08:09:03;11.53;;;1.47;;
51764;SDS011;37835;53.256;6.456;2024-01-15T08:11:29;9.32;;;1.40;;
51764;SDS011;37835;53.256;6.456;2024-01-15T08:13:55;17.73;;;1.80;;
51764;SDS011;37835;53.256;6.456;2024-01-15T08:16:21;18.47;;;1.73;;
51764;SDS011;37835;53.256;6.456;2024-01-15T08:18:47;11.63;;;1.77;;
51764;SDS011;37835;53.256;6.456;2024-01-15T08:21:13;17.63;;;1.80;;
51764;SDS011;37835;53.256;6.456;2024-01-15T08:23:38;17.43;;;1.87;;
51764;SDS011;37835;53.256;6.456;2024-01-15T08:26:04;10.80;;;1.40;;
51764;SDS011;37835;53.256;6.456;2024-01-15T08:28:30;14.27;;;2.03;;
51764;SDS011;37835;53.256;6.456;2024-01-15T08:30:56;12.87;;;1.40;;
51764;SDS011;37835;53.256;6.456;2024-01-15T08:33:21;10.73;;;1.50;;
51764;SDS011;37835;53.256;6.456;2024-01-15T08:35:47;16.10;;;1.57;;
51764;SDS011;37835;53.256;6.456;2024-01-15T08:38:13;6.93;;;1.38;;
51764;SDS011;37835;53.256;6.456;2024-01-15T08:40:39;15.07;;;1.87;;
51764;SDS011;37835;53.256;6.456;2024-01-15T08:43:04;12.75;;;1.30;;
51764;SDS011;37835;53.256;6.456;2024-01-15T08:45:31;10.30;;;1.70;;
51764;SDS011;37835;53.256;6.456;2024-01-15T08:47:57;13.45;;;1.00;;
51764;SDS011;37835;53.256;6.456;2024-01-15T08:50:23;8.50;;;1.20;;
51764;SDS011;37835;53.256;6.456;2024-01-15T08:52:49;12.63;;;1.13;;
51764;SDS011;37835;53.256;6.456;2024-01-15T08:55:14;7.50;;;1.00;;
51764;SDS011;37835;53.256;6.456;2024-01-15T08:57:40;8.63;;;1.50;;
51764;SDS011;37835;53.256;6.456;2024-01-15T09:00:06;10.30;;;1.55;;
51764;SDS011;37835;53.256;6.456;2024-01-15T09:02:34;6.93;;;1.20;;
51764;SDS011;37835;53.256;6.456;2024-01-15T09:05:01;12.57;;;1.83;;
51764;SDS011;37835;53.256;6.456;2024-01-15T09:07:27;11.40;;;1.70;;
51764;SDS011;37835;53.256;6.456;2024-01-15T09:09:52;7.70;;;1.10;;
51764;SDS011;37835;53.256;6.456;2024-01-15T09:12:18;11.97;;;1.77;;
51764;SDS011;37835;53.256;6.456;2024-01-15T09:14:46;11.77;;;1.75;;
51764;SDS011;37835;53.256;6.456;2024-01-15T09:17:12;12.03;;;1.50;;
51764;SDS011;37835;53.256;6.456;2024-01-15T09:19:38;5.53;;;1.30;;
51764;SDS011;37835;53.256;6.456;2024-01-15T09:22:07;9.03;;;1.57;;
51764;SDS011;37835;53.256;6.456;2024-01-15T09:24:32;8.80;;;1.00;;
51764;SDS011;37835;53.256;6.456;2024-01-15T09:26:58;9.32;;;1.30;;
51764;SDS011;37835;53.256;6.456;2024-01-15T09:29:24;11.43;;;1.35;;
51764;SDS011;37835;53.256;6.456;2024-01-15T09:31:49;10.45;;;1.27;;
51764;SDS011;37835;53.256;6.456;2024-01-15T09:34:15;7.17;;;1.03;;
51764;SDS011;37835;53.256;6.456;2024-01-15T09:36:42;12.00;;;1.63;;
51764;SDS011;37835;53.256;6.456;2024-01-15T09:39:10;10.15;;;1.60;;
51764;SDS011;37835;53.256;6.456;2024-01-15T09:41:39;14.93;;;1.73;;
51764;SDS011;37835;53.256;6.456;2024-01-15T09:44:05;11.60;;;1.77;;
51764;SDS011;37835;53.256;6.456;2024-01-15T09:46:32;16.10;;;1.83;;
51764;SDS011;37835;53.256;6.456;2024-01-15T09:48:59;12.75;;;1.70;;
51764;SDS011;37835;53.256;6.456;2024-01-15T09:51:26;14.05;;;1.50;;
51764;SDS011;37835;53.256;6.456;2024-01-15T09:53:56;10.23;;;1.48;;
51764;SDS011;37835;53.256;6.456;2024-01-15T09:56:23;13.95;;;2.10;;
51764;SDS011;37835;53.256;6.456;2024-01-15T09:58:49;18.48;;;1.88;;
51764;SDS011;37835;53.256;6.456;2024-01-15T10:01:17;14.15;;;1.58;;
51764;SDS011;37835;53.256;6.456;2024-01-15T10:03:45;10.57;;;1.63;;
51764;SDS011;37835;53.256;6.456;2024-01-15T10:06:14;14.30;;;1.52;;
51764;SDS011;37835;53.256;6.456;2024-01-15T10:08:42;11.10;;;1.27;;
51764;SDS011;37835;53.256;6.456;2024-01-15T10:11:12;12.00;;;0.90;;
51764;SDS011;37835;53.256;6.456;2024-01-15T10:13:39;10.30;;;1.17;;
51764;SDS011;37835;53.256;6.456;2024-01-15T10:16:04;8.47;;;1.10;;
51764;SDS011;37835;53.256;6.456;2024-01-15T10:18:31;9.55;;;1.08;;
51764;SDS011;37835;53.256;6.456;2024-01-15T10:20:57;10.97;;;1.80;;
51764;SDS011;37835;53.256;6.456;2024-01-15T10:23:23;13.25;;;1.23;;
51764;SDS011;37835;53.256;6.456;2024-01-15T10:25:49;9.75;;;1.38;;
51764;SDS011;37835;53.256;6.456;2024-01-15T10:28:16;12.57;;;1.60;;
51764;SDS011;37835;53.256;6.456;2024-01-15T10:30:44;13.38;;;1.20;;
51764;SDS011;37835;53.256;6.456;2024-01-15T10:33:10;17.10;;;1.42;;
51764;SDS011;37835;53.256;6.456;2024-01-15T10:35:37;6.05;;;1.25;;
51764;SDS011;37835;53.256;6.456;2024-01-15T10:38:03;7.78;;;0.90;;
51764;SDS011;37835;53.256;6.456;2024-01-15T10:40:30;5.30;;;0.38;;
51764;SDS011;37835;53.256;6.456;2024-01-15T10:42:56;4.55;;;0.43;;
51764;SDS011;37835;53.256;6.456;2024-01-15T10:45:22;4.32;;;0.35;;
51764;SDS011;37835;53.256;6.456;2024-01-15T10:47:49;7.13;;;0.50;;
51764;SDS011;37835;53.256;6.456;2024-01-15T10:50:14;3.97;;;0.60;;
51764;SDS011;37835;53.256;6.456;2024-01-15T10:52:41;3.58;;;0.43;;
51764;SDS011;37835;53.256;6.456;2024-01-15T10:55:11;6.07;;;0.30;;
51764;SDS011;37835;53.256;6.456;2024-01-15T10:57:37;3.10;;;0.30;;
51764;SDS011;37835;53.256;6.456;2024-01-15T11:00:06;2.88;;;0.57;;
51764;SDS011;37835;53.256;6.456;2024-01-15T11:02:35;4.05;;;0.50;;
51764;SDS011;37835;53.256;6.456;2024-01-15T11:05:02;10.35;;;0.60;;
51764;SDS011;37835;53.256;6.456;2024-01-15T11:07:28;4.65;;;0.30;;
51764;SDS011;37835;53.256;6.456;2024-01-15T11:09:56;7.35;;;0.57;;
51764;SDS011;37835;53.256;6.456;2024-01-15T11:12:23;4.05;;;0.30;;
51764;SDS011;37835;53.256;6.456;2024-01-15T11:14:50;10.35;;;0.55;;
51764;SDS011;37835;53.256;6.456;2024-01-15T11:17:16;2.42;;;0.70;;
51764;SDS011;37835;53.256;6.456;2024-01-15T11:19:44;3.97;;;0.25;;
51764;SDS011;37835;53.256;6.456;2024-01-15T11:24:57;5.18;;;0.55;;
51764;SDS011;37835;53.256;6.456;2024-01-15T11:27:43;0.98;;;0.17;;
51764;SDS011;37835;53.256;6.456;2024-01-15T11:30:08;2.45;;;0.25;;
51764;SDS011;37835;53.256;6.456;2024-01-15T11:32:38;4.30;;;0.63;;
51764;SDS011;37835;53.256;6.456;2024-01-15T11:35:06;4.70;;;0.70;;
51764;SDS011;37835;53.256;6.456;2024-01-15T11:43:02;2.40;;;0.40;;
51764;SDS011;37835;53.256;6.456;2024-01-15T11:45:28;1.83;;;0.20;;
51764;SDS011;37835;53.256;6.456;2024-01-15T11:50:47;5.85;;;0.28;;
51764;SDS011;37835;53.256;6.456;2024-01-15T11:53:21;4.82;;;0.30;;
51764;SDS011;37835;53.256;6.456;2024-01-15T11:55:59;5.13;;;0.73;;
51764;SDS011;37835;53.256;6.456;2024-01-15T11:58:28;5.17;;;0.50;;
51764;SDS011;37835;53.256;6.456;2024-01-15T12:00:54;10.40;;;1.17;;
51764;SDS011;37835;53.256;6.456;2024-01-15T12:03:20;10.27;;;0.90;;
51764;SDS011;37835;53.256;6.456;2024-01-15T12:05:47;12.23;;;0.80;;
51764;SDS011;37835;53.256;6.456;2024-01-15T12:08:13;12.20;;;1.57;;
51764;SDS011;37835;53.256;6.456;2024-01-15T12:10:39;9.20;;;1.13;;
51764;SDS011;37835;53.256;6.456;2024-01-15T12:15:43;9.53;;;1.67;;
51764;SDS011;37835;53.256;6.456;2024-01-15T12:18:09;7.97;;;0.87;;
51764;SDS011;37835;53.256;6.456;2024-01-15T12:20:37;8.27;;;0.93;;
51764;SDS011;37835;53.256;6.456;2024-01-15T12:23:04;10.38;;;1.02;;
51764;SDS011;37835;53.256;6.456;2024-01-15T12:25:31;11.10;;;0.93;;
51764;SDS011;37835;53.256;6.456;2024-01-15T12:27:57;9.77;;;1.37;;
51764;SDS011;37835;53.256;6.456;2024-01-15T12:30:25;8.83;;;1.80;;
51764;SDS011;37835;53.256;6.456;2024-01-15T12:32:51;12.18;;;1.75;;
51764;SDS011;37835;53.256;6.456;2024-01-15T12:35:17;8.02;;;0.98;;
51764;SDS011;37835;53.256;6.456;2024-01-15T12:37:43;12.30;;;1.27;;
51764;SDS011;37835;53.256;6.456;2024-01-15T12:40:11;10.60;;;1.20;;
51764;SDS011;37835;53.256;6.456;2024-01-15T12:42:37;13.20;;;1.57;;
51764;SDS011;37835;53.256;6.456;2024-01-15T12:45:05;8.77;;;1.10;;
51764;SDS011;37835;53.256;6.456;2024-01-15T12:47:31;14.48;;;2.25;;
51764;SDS011;37835;53.256;6.456;2024-01-15T12:49:57;12.30;;;1.45;;
51764;SDS011;37835;53.256;6.456;2024-01-15T12:52:26;8.23;;;1.67;;
51764;SDS011;37835;53.256;6.456;2024-01-15T12:54:52;10.45;;;1.20;;
51764;SDS011;37835;53.256;6.456;2024-01-15T12:57:18;17.67;;;2.63;;
51764;SDS011;37835;53.256;6.456;2024-01-15T12:59:44;9.10;;;1.48;;
51764;SDS011;37835;53.256;6.456;2024-01-15T13:02:10;11.63;;;2.08;;
51764;SDS011;37835;53.256;6.456;2024-01-15T13:04:39;12.80;;;1.80;;
51764;SDS011;37835;53.256;6.456;2024-01-15T13:07:06;9.65;;;1.45;;
51764;SDS011;37835;53.256;6.456;2024-01-15T13:09:32;13.00;;;1.63;;
51764;SDS011;37835;53.256;6.456;2024-01-15T13:11:58;13.20;;;1.50;;
51764;SDS011;37835;53.256;6.456;2024-01-15T13:14:24;16.53;;;2.37;;
51764;SDS011;37835;53.256;6.456;2024-01-15T13:16:50;17.88;;;1.88;;
51764;SDS011;37835;53.256;6.456;2024-01-15T13:19:16;12.95;;;1.80;;
51764;SDS011;37835;53.256;6.456;2024-01-15T13:21:42;15.77;;;1.80;;
51764;SDS011;37835;53.256;6.456;2024-01-15T13:24:09;10.52;;;1.50;;
51764;SDS011;37835;53.256;6.456;2024-01-15T13:26:36;11.10;;;1.67;;
51764;SDS011;37835;53.256;6.456;2024-01-15T13:29:05;18.83;;;1.40;;
51764;SDS011;37835;53.256;6.456;2024-01-15T13:31:31;12.38;;;1.48;;
51764;SDS011;37835;53.256;6.456;2024-01-15T13:33:57;12.10;;;1.08;;
51764;SDS011;37835;53.256;6.456;2024-01-15T13:36:23;12.60;;;1.80;;
51764;SDS011;37835;53.256;6.456;2024-01-15T13:38:52;6.00;;;1.13;;
51764;SDS011;37835;53.256;6.456;2024-01-15T13:41:19;12.20;;;1.50;;
51764;SDS011;37835;53.256;6.456;2024-01-15T13:43:52;8.63;;;1.20;;
51764;SDS011;37835;53.256;6.456;2024-01-15T13:46:19;6.28;;;1.17;;
51764;SDS011;37835;53.256;6.456;2024-01-15T13:48:46;12.70;;;1.40;;
51764;SDS011;37835;53.256;6.456;2024-01-15T13:51:12;11.10;;;1.15;;
51764;SDS011;37835;53.256;6.456;2024-01-15T13:53:38;5.15;;;0.85;;
51764;SDS011;37835;53.256;6.456;2024-01-15T13:56:04;15.18;;;1.58;;
51764;SDS011;37835;53.256;6.456;2024-01-15T13:58:31;14.77;;;1.50;;
51764;SDS011;37835;53.256;6.456;2024-01-15T14:00:58;10.07;;;1.65;;
51764;SDS011;37835;53.256;6.456;2024-01-15T14:03:24;11.02;;;1.73;;
51764;SDS011;37835;53.256;6.456;2024-01-15T14:05:50;16.30;;;2.47;;
51764;SDS011;37835;53.256;6.456;2024-01-15T14:08:16;14.80;;;2.13;;
51764;SDS011;37835;53.256;6.456;2024-01-15T14:10:42;9.18;;;1.80;;
51764;SDS011;37835;53.256;6.456;2024-01-15T14:13:08;12.23;;;1.73;;
51764;SDS011;37835;53.256;6.456;2024-01-15T14:15:34;13.37;;;1.30;;
51764;SDS011;37835;53.256;6.456;2024-01-15T14:17:59;8.20;;;1.23;;
51764;SDS011;37835;53.256;6.456;2024-01-15T14:20:26;7.53;;;1.10;;
51764;SDS011;37835;53.256;6.456;2024-01-15T14:22:52;16.02;;;2.58;;
51764;SDS011;37835;53.256;6.456;2024-01-15T14:25:19;17.10;;;2.45;;
51764;SDS011;37835;53.256;6.456;2024-01-15T14:27:49;12.73;;;1.63;;
51764;SDS011;37835;53.256;6.456;2024-01-15T14:30:15;11.38;;;1.50;;
51764;SDS011;37835;53.256;6.456;2024-01-15T14:32:42;10.60;;;1.20;;
51764;SDS011;37835;53.256;6.456;2024-01-15T14:35:08;8.93;;;1.08;;
51764;SDS011;37835;53.256;6.456;2024-01-15T14:37:38;14.35;;;1.30;;
51764;SDS011;37835;53.256;6.456;2024-01-15T14:40:07;14.95;;;1.95;;
51764;SDS011;37835;53.256;6.456;2024-01-15T14:42:33;15.77;;;1.83;;
51764;SDS011;37835;53.256;6.456;2024-01-15T14:45:00;13.50;;;1.30;;
51764;SDS011;37835;53.256;6.456;2024-01-15T14:47:27;18.85;;;1.75;;